Terminal Aerodrome Forecast
Issued by NWS Wilmington, OH

Current Version | Previous Version | Graphics & Text | Print | Product List | Glossary On
Versions: 1 2 3 4 5 6 7 8 9 10 11 12 13 14 15 16 17 18 19 20 21 22 23
000
FTUS41 KILN 211300 AAA
TAFILN
TAF AMD
KILN 211334Z 2114/2212 31010KT P6SM BKN060
     FM211600 32011G19KT P6SM OVC025
     FM212200 34010KT P6SM OVC025=

USA.gov is the U.S. government's official web portal to all federal, state and local government web resources and services.